Time;durP1;ratioP1;P1;durP2;ratioP2;P2;SDS_P1;SDS_P2;PMS_P1;PMS_P2;Temp;Humidity;BMP_temperature;BMP_pressure;BME280_temperature;BME280_humidity;BME280_pressure;Samples;Min_cycle;Max_cycle;Signal;HPM_P1;HPM_P2
2021/12/21 00:00:51;;;;;;;24.70;10.88;;;0.80;99.90;;;;;;5069430;28;20059;-85
2021/12/21 00:03:17;;;;;;;23.95;9.73;;;-0.20;99.90;;;;;;5068714;28;20056;-86
2021/12/21 00:05:43;;;;;;;20.48;9.63;;;0.60;99.90;;;;;;5069418;28;20040;-86
2021/12/21 00:08:11;;;;;;;18.58;9.43;;;-0.50;99.90;;;;;;5068896;28;20064;-86
2021/12/21 00:10:38;;;;;;;14.00;8.73;;;-0.50;99.90;;;;;;5067511;28;20044;-86
2021/12/21 00:18:42;;;;;;;17.30;9.50;;;-0.60;99.90;;;;;;4989425;28;20132;-86
2021/12/21 00:23:58;;;;;;;15.85;8.95;;;-0.60;99.90;;;;;;5056737;28;20052;-86
2021/12/21 00:26:24;;;;;;;15.52;9.35;;;-0.60;99.90;;;;;;5053857;28;20645;-86
2021/12/21 00:28:59;;;;;;;19.40;9.85;;;-0.60;99.90;;;;;;5053784;28;20033;-86
2021/12/21 00:31:33;;;;;;;17.65;10.18;;;-0.60;99.90;;;;;;5070052;28;20115;-85
2021/12/21 00:34:00;;;;;;;15.85;9.45;;;-0.60;99.90;;;;;;5053264;28;20060;-86
2021/12/21 00:36:28;;;;;;;18.10;9.13;;;0.10;99.90;;;;;;5069480;28;20040;-86
2021/12/21 00:38:56;;;;;;;16.48;9.07;;;-0.60;99.90;;;;;;5070155;28;20119;-85
2021/12/21 00:41:24;;;;;;;16.63;7.75;;;-0.70;99.90;;;;;;5053052;28;20523;-86
2021/12/21 00:43:51;;;;;;;13.18;7.80;;;-0.70;99.90;;;;;;5070447;28;20404;-86
2021/12/21 00:46:17;;;;;;;12.15;6.75;;;-0.80;99.90;;;;;;5070923;28;20043;-86
2021/12/21 00:48:52;;;;;;;10.45;6.13;;;-0.80;99.90;;;;;;5071144;28;20119;-86
2021/12/21 00:51:20;;;;;;;12.27;6.55;;;-0.80;99.90;;;;;;5056809;28;20487;-86
2021/12/21 00:53:46;;;;;;;12.13;6.45;;;-0.80;99.90;;;;;;5071059;28;20044;-85
2021/12/21 00:56:13;;;;;;;10.27;5.80;;;-0.80;99.90;;;;;;5058220;28;20101;-85
2021/12/21 00:58:39;;;;;;;8.90;5.50;;;-0.20;99.90;;;;;;5057171;28;20045;-86
2021/12/21 01:01:06;;;;;;;9.63;4.50;;;-0.90;99.90;;;;;;5057129;28;20032;-86
2021/12/21 01:03:41;;;;;;;8.30;4.47;;;0.60;99.90;;;;;;5073248;28;20044;-85
2021/12/21 01:06:14;;;;;;;12.23;4.80;;;-1.00;99.90;;;;;;5073422;28;20123;-86
2021/12/21 01:11:35;;;;;;;7.75;4.60;;;-1.00;99.90;;;;;;5071212;28;20059;-86
2021/12/21 01:16:42;;;;;;;11.52;5.85;;;-1.10;99.90;;;;;;5057199;28;20048;-85
2021/12/21 01:19:22;;;;;;;10.77;5.50;;;-1.10;99.90;;;;;;5073145;28;20044;-86
2021/12/21 01:29:51;;;;;;;8.52;5.00;;;-1.30;99.90;;;;;;5072938;28;20504;-85
2021/12/21 01:32:53;;;;;;;10.05;4.93;;;-1.40;99.90;;;;;;5043177;28;20040;-86
2021/12/21 01:35:34;;;;;;;10.05;5.25;;;0.00;99.90;;;;;;5072151;28;20044;-86
2021/12/21 01:43:18;;;;;;;14.10;6.22;;;-0.90;99.90;;;;;;5055533;28;20769;-86
2021/12/21 01:51:14;;;;;;;12.18;6.05;;;-1.50;99.90;;;;;;5071447;28;20500;-85
2021/12/21 01:53:41;;;;;;;9.68;5.18;;;-1.50;99.90;;;;;;5072599;28;20067;-86
2021/12/21 01:56:07;;;;;;;10.05;5.05;;;-1.40;99.90;;;;;;5055170;28;20048;-85
2021/12/21 01:58:34;;;;;;;13.63;5.07;;;-1.30;99.90;;;;;;5055603;28;20037;-85
2021/12/21 02:01:01;;;;;;;11.65;4.88;;;-1.30;99.90;;;;;;5039565;28;20427;-86
2021/12/21 02:03:30;;;;;;;9.80;4.68;;;-1.30;99.90;;;;;;5072140;28;20087;-85
2021/12/21 02:05:55;;;;;;;11.50;5.20;;;-1.30;99.90;;;;;;5072604;28;20032;-85
2021/12/21 02:08:21;;;;;;;10.20;4.95;;;-1.30;99.90;;;;;;5072270;28;20067;-86
2021/12/21 02:10:47;;;;;;;9.40;4.65;;;-0.10;99.90;;;;;;5056376;28;20480;-86
2021/12/21 02:13:13;;;;;;;9.02;4.55;;;-0.20;99.90;;;;;;5055778;28;20037;-85
2021/12/21 02:15:39;;;;;;;9.95;5.10;;;-1.30;99.90;;;;;;5056161;28;20100;-85
2021/12/21 02:20:52;;;;;;;9.98;5.40;;;-1.20;99.90;;;;;;5072408;28;20551;-86
2021/12/21 02:23:26;;;;;;;9.60;5.20;;;-0.90;99.90;;;;;;5056514;28;20135;-85
2021/12/21 02:26:05;;;;;;;9.32;5.78;;;-1.40;99.90;;;;;;5040128;28;20044;-86
2021/12/21 02:31:07;;;;;;;11.57;5.88;;;0.40;99.90;;;;;;5054320;28;20037;-86
2021/12/21 02:33:34;;;;;;;14.48;5.63;;;-1.40;99.90;;;;;;5069948;28;20123;-86
2021/12/21 02:36:03;;;;;;;9.55;5.13;;;-1.50;99.90;;;;;;5055876;28;20043;-85
2021/12/21 02:38:29;;;;;;;9.90;5.60;;;0.20;99.90;;;;;;5054816;28;20028;-85
2021/12/21 02:40:55;;;;;;;8.02;5.20;;;-1.60;99.90;;;;;;5071845;28;20507;-85
2021/12/21 02:43:22;;;;;;;16.15;5.70;;;-1.50;99.90;;;;;;5055224;28;20476;-85
2021/12/21 02:45:48;;;;;;;10.27;5.57;;;-1.50;99.90;;;;;;5054482;28;20080;-85
2021/12/21 02:48:14;;;;;;;9.93;5.10;;;-0.90;99.90;;;;;;5072128;28;20032;-85
2021/12/21 02:50:41;;;;;;;8.60;4.53;;;-0.20;99.90;;;;;;5071323;28;20036;-86
2021/12/21 02:53:08;;;;;;;10.30;4.72;;;-1.70;99.90;;;;;;5070987;28;20041;-85
2021/12/21 02:55:35;;;;;;;11.20;5.10;;;-1.70;99.90;;;;;;5072529;28;20094;-86
2021/12/21 02:58:00;;;;;;;;;;;-1.70;99.90;;;;;;5055143;28;20040;-85
2021/12/21 03:00:28;;;;;;;12.30;5.30;;;-1.70;99.90;;;;;;5071401;28;19923;-86
2021/12/21 03:02:54;;;;;;;9.98;5.30;;;-1.70;99.90;;;;;;5070651;28;20114;-85
2021/12/21 03:05:21;;;;;;;8.80;4.72;;;-0.80;99.90;;;;;;5071134;28;20064;-85
2021/12/21 03:10:24;;;;;;;10.63;5.07;;;-1.70;99.90;;;;;;5071787;28;20117;-86
2021/12/21 03:15:28;;;;;;;10.85;4.85;;;-1.60;99.90;;;;;;5071032;28;20126;-85
2021/12/21 03:17:55;;;;;;;10.95;4.93;;;-1.40;99.90;;;;;;5054837;28;20064;-86
2021/12/21 03:20:22;;;;;;;8.35;4.32;;;-1.60;99.90;;;;;;5069014;28;20097;-85
2021/12/21 03:22:48;;;;;;;6.70;4.72;;;-1.60;99.90;;;;;;5034635;28;20050;-85
2021/12/21 03:25:15;;;;;;;8.45;4.82;;;-1.60;99.90;;;;;;5070885;28;20044;-85
2021/12/21 03:27:41;;;;;;;10.00;4.72;;;-1.70;99.90;;;;;;5070441;28;20043;-86
2021/12/21 03:30:10;;;;;;;8.43;5.25;;;-1.70;99.90;;;;;;5071229;28;20037;-86
2021/12/21 03:32:36;;;;;;;9.75;5.18;;;-1.70;99.90;;;;;;5053997;28;20071;-85
2021/12/21 03:35:02;;;;;;;9.07;5.20;;;-1.70;99.90;;;;;;5052506;28;20032;-85
2021/12/21 03:37:28;;;;;;;;;;;-1.70;99.90;;;;;;5070037;28;20044;-83
2021/12/21 03:39:55;;;;;;;13.82;5.40;;;-1.80;99.90;;;;;;5069665;28;20325;-83
2021/12/21 03:42:23;;;;;;;10.00;5.40;;;-1.80;99.90;;;;;;5069649;28;20564;-83
2021/12/21 03:44:49;;;;;;;11.38;5.60;;;-0.90;99.90;;;;;;5069968;28;20033;-85
2021/12/21 03:47:16;;;;;;;12.25;5.20;;;-1.80;99.90;;;;;;5053979;28;20045;-85
2021/12/21 03:52:11;;;;;;;8.50;4.70;;;-1.90;99.90;;;;;;5070399;28;20067;-86
2021/12/21 03:54:38;;;;;;;10.63;5.70;;;-1.90;99.90;;;;;;5070690;28;20047;-85
2021/12/21 03:57:05;;;;;;;8.40;5.03;;;-1.70;99.90;;;;;;5070515;28;20052;-86
2021/12/21 03:59:31;;;;;;;10.77;5.00;;;-1.90;99.90;;;;;;5070563;28;20060;-85
2021/12/21 04:01:57;;;;;;;12.05;5.05;;;-1.90;99.90;;;;;;5070281;28;20060;-85
2021/12/21 04:04:26;;;;;;;;;;;-1.30;99.90;;;;;;5054554;28;20059;-85
2021/12/21 04:06:53;;;;;;;8.45;5.20;;;-2.00;99.90;;;;;;5053963;28;20368;-85
2021/12/21 04:09:19;;;;;;;11.98;5.60;;;-2.10;99.90;;;;;;5071183;28;20500;-85
2021/12/21 04:11:45;;;;;;;13.75;5.28;;;-2.10;99.90;;;;;;5070369;28;20079;-85
2021/12/21 04:14:13;;;;;;;11.40;5.38;;;-2.10;99.90;;;;;;5070537;28;20072;-85
2021/12/21 04:16:40;;;;;;;11.52;4.65;;;-2.10;99.90;;;;;;5070188;28;20120;-85
2021/12/21 04:19:05;;;;;;;11.10;5.60;;;-2.10;99.90;;;;;;5053769;28;20048;-85
2021/12/21 04:21:31;;;;;;;9.45;5.18;;;-2.10;99.90;;;;;;5053797;28;20037;-85
2021/12/21 04:23:57;;;;;;;10.73;5.35;;;-2.10;99.90;;;;;;5071452;28;20039;-85
2021/12/21 04:26:25;;;;;;;11.38;5.78;;;-2.10;99.90;;;;;;5057956;28;20036;-85
2021/12/21 04:28:51;;;;;;;8.13;5.15;;;-2.20;99.90;;;;;;5073532;28;20119;-85
2021/12/21 04:31:17;;;;;;;9.68;5.18;;;-1.00;99.90;;;;;;5074722;28;20112;-85
2021/12/21 04:33:43;;;;;;;11.68;6.60;;;-2.10;99.90;;;;;;5041137;28;20413;-86
2021/12/21 04:36:11;;;;;;;12.32;6.55;;;-2.10;99.90;;;;;;5074688;28;20044;-85
2021/12/21 04:38:43;;;;;;;14.82;7.53;;;-2.20;99.90;;;;;;5058013;28;20032;-86
2021/12/21 04:41:17;;;;;;;11.57;5.95;;;-2.10;99.90;;;;;;5074300;28;20097;-85
2021/12/21 04:43:43;;;;;;;14.20;7.38;;;-2.10;99.90;;;;;;5031990;28;20045;-85
2021/12/21 04:46:10;;;;;;;14.27;6.90;;;-2.10;99.90;;;;;;5074192;28;20040;-85
2021/12/21 04:48:36;;;;;;;12.20;6.75;;;-2.10;99.90;;;;;;5057480;28;20032;-85
2021/12/21 04:51:02;;;;;;;13.15;7.00;;;-2.20;99.90;;;;;;5057209;28;20411;-85
2021/12/21 04:53:28;;;;;;;11.27;6.95;;;-2.20;99.90;;;;;;5073513;28;20163;-85
2021/12/21 04:55:54;;;;;;;14.45;6.47;;;-1.70;99.90;;;;;;5057880;28;20456;-85
2021/12/21 04:58:20;;;;;;;12.18;6.95;;;-2.20;99.90;;;;;;5074175;28;20047;-85
2021/12/21 05:00:47;;;;;;;10.88;6.03;;;-2.20;99.90;;;;;;5056737;28;20033;-85
2021/12/21 05:03:13;;;;;;;10.55;6.30;;;-1.50;99.90;;;;;;5056540;28;20082;-85
2021/12/21 05:05:39;;;;;;;10.07;5.18;;;-2.20;99.90;;;;;;5040156;28;20341;-85
2021/12/21 05:08:31;;;;;;;9.82;6.40;;;-2.20;99.90;;;;;;5073451;28;20066;-85
2021/12/21 05:10:57;;;;;;;8.87;5.63;;;-2.20;99.90;;;;;;5058277;28;20079;-85
2021/12/21 05:13:26;;;;;;;10.30;6.13;;;-0.60;99.90;;;;;;5074156;28;20044;-86
2021/12/21 05:15:52;;;;;;;9.73;5.80;;;-2.20;99.90;;;;;;5057368;28;20036;-85
2021/12/21 05:18:18;;;;;;;;;;;-3.10;99.90;;;;;;5071759;28;20040;-85
2021/12/21 05:20:44;;;;;;;13.45;6.55;;;-2.20;99.90;;;;;;5057406;28;19916;-86
2021/12/21 05:23:11;;;;;;;10.23;5.97;;;-2.20;99.90;;;;;;5057010;28;20048;-85
2021/12/21 05:25:38;;;;;;;10.13;6.10;;;-2.20;99.90;;;;;;5073105;28;20113;-84
2021/12/21 05:28:05;;;;;;;12.15;6.50;;;-2.20;99.90;;;;;;5073482;28;20036;-82
2021/12/21 05:30:32;;;;;;;10.18;6.50;;;-2.20;99.90;;;;;;5073312;28;20170;-84
2021/12/21 05:32:57;;;;;;;12.85;6.28;;;-2.20;99.90;;;;;;5073232;28;20040;-85
2021/12/21 05:35:25;;;;;;;14.37;6.50;;;-2.20;99.90;;;;;;5039294;28;20448;-86
2021/12/21 05:37:55;;;;;;;10.63;6.07;;;-2.20;99.90;;;;;;5057188;28;20669;-92
2021/12/21 05:40:21;;;;;;;14.82;6.57;;;-2.20;99.90;;;;;;5077838;28;20041;-93
2021/12/21 05:42:47;;;;;;;9.88;6.25;;;-2.20;99.90;;;;;;5062400;28;20047;-90
2021/12/21 05:45:16;;;;;;;12.52;6.38;;;-0.10;99.90;;;;;;5060952;28;20094;-85
2021/12/21 05:47:43;;;;;;;10.90;6.00;;;-2.20;99.90;;;;;;5074802;28;20032;-85
2021/12/21 05:50:14;;;;;;;10.13;5.72;;;-2.30;99.90;;;;;;5073343;28;20132;-85
2021/12/21 05:52:40;;;;;;;10.68;6.60;;;-2.30;99.90;;;;;;5072735;28;20055;-82
2021/12/21 05:55:07;;;;;;;12.00;6.70;;;-2.30;99.90;;;;;;5072610;28;20033;-76
2021/12/21 05:57:32;;;;;;;;;;;-2.30;99.90;;;;;;5072394;28;20040;-79
2021/12/21 05:59:58;;;;;;;10.60;6.53;;;-2.30;99.90;;;;;;5073209;28;19920;-78
2021/12/21 06:02:24;;;;;;;10.38;6.88;;;-1.00;99.90;;;;;;5072444;28;20045;-78
2021/12/21 06:04:50;;;;;;;11.07;6.43;;;-2.30;99.90;;;;;;5055816;28;20045;-78
2021/12/21 06:07:16;;;;;;;11.82;6.65;;;-2.30;99.90;;;;;;5055391;28;20029;-78
2021/12/21 06:09:47;;;;;;;8.85;6.07;;;-2.40;99.90;;;;;;5072689;28;20060;-79
2021/12/21 06:23:08;;;;;;;14.02;6.60;;;-2.40;99.90;;;;;;5072582;28;20253;-80
2021/12/21 06:25:42;;;;;;;9.43;5.47;;;-2.40;99.90;;;;;;5041665;28;20039;-78
2021/12/21 06:28:11;;;;;;;12.63;6.80;;;-2.50;99.90;;;;;;5072802;28;20075;-78
2021/12/21 06:30:39;;;;;;;10.93;6.00;;;-2.50;99.90;;;;;;5072639;28;20037;-78
2021/12/21 06:33:07;;;;;;;12.60;6.25;;;-2.50;99.90;;;;;;5072377;28;20040;-78
2021/12/21 06:35:34;;;;;;;8.52;5.82;;;-2.50;99.90;;;;;;5054569;28;20091;-78
2021/12/21 06:38:00;;;;;;;13.73;6.25;;;-2.50;99.90;;;;;;5053312;28;20048;-78
2021/12/21 06:40:26;;;;;;;9.70;6.28;;;-1.00;99.90;;;;;;5055272;28;20051;-80
2021/12/21 06:42:53;;;;;;;9.77;5.85;;;-2.50;99.90;;;;;;5055401;28;20076;-81
2021/12/21 06:53:36;;;;;;;10.38;5.97;;;-2.50;99.90;;;;;;5072030;28;20045;-79
2021/12/21 06:56:02;;;;;;;9.15;5.85;;;-2.50;99.90;;;;;;5071859;28;20056;-79
2021/12/21 06:58:28;;;;;;;10.63;5.85;;;-2.60;99.90;;;;;;5071788;28;20040;-79
2021/12/21 07:00:54;;;;;;;11.85;6.72;;;-2.50;99.90;;;;;;5072069;28;20432;-79
2021/12/21 07:03:20;;;;;;;9.85;6.15;;;-2.60;99.90;;;;;;5071629;28;20496;-79
2021/12/21 07:05:50;;;;;;;;;;;-2.50;99.90;;;;;;5055585;28;20041;-79
2021/12/21 07:08:20;;;;;;;12.52;6.07;;;-2.50;99.90;;;;;;5071678;28;20405;-79
2021/12/21 07:10:54;;;;;;;10.93;6.15;;;-2.50;99.90;;;;;;5071608;28;20040;-79
2021/12/21 07:18:51;;;;;;;11.20;6.85;;;-2.50;99.90;;;;;;5071499;28;20102;-79
2021/12/21 07:21:17;;;;;;;8.63;6.03;;;-2.50;99.90;;;;;;5071244;28;20512;-79
2021/12/21 07:23:42;;;;;;;9.38;6.15;;;-2.50;99.90;;;;;;5071189;28;20036;-79
2021/12/21 07:26:08;;;;;;;8.93;6.28;;;-2.50;99.90;;;;;;5038195;28;20465;-79
2021/12/21 07:28:34;;;;;;;10.05;6.20;;;-2.50;99.90;;;;;;5054304;28;20044;-79
2021/12/21 07:31:02;;;;;;;9.65;6.03;;;-1.40;99.90;;;;;;5037966;28;20115;-81
2021/12/21 07:33:28;;;;;;;12.00;6.35;;;-1.70;99.90;;;;;;5054461;28;20036;-81
2021/12/21 07:35:54;;;;;;;9.57;5.30;;;-2.50;99.90;;;;;;5053546;28;20154;-81
2021/12/21 07:38:20;;;;;;;7.07;5.70;;;-2.50;99.90;;;;;;5069590;28;20071;-81
2021/12/21 07:40:45;;;;;;;9.45;6.60;;;-2.60;99.90;;;;;;5037826;28;20040;-81
2021/12/21 07:43:11;;;;;;;8.95;5.68;;;-1.20;99.90;;;;;;5070466;28;20040;-81
2021/12/21 07:45:37;;;;;;;12.43;7.05;;;-2.60;99.90;;;;;;5070750;28;20037;-82
2021/12/21 07:48:03;;;;;;;9.43;6.70;;;-2.60;99.90;;;;;;5053570;28;20097;-81
2021/12/21 07:50:29;;;;;;;9.20;6.03;;;-2.60;99.90;;;;;;5070215;28;20079;-81
2021/12/21 07:52:56;;;;;;;8.95;6.47;;;-2.60;99.90;;;;;;5053766;28;20449;-81
2021/12/21 07:55:22;;;;;;;11.18;6.05;;;-2.60;99.90;;;;;;5052967;28;20119;-81
2021/12/21 07:57:48;;;;;;;11.82;6.70;;;-2.60;99.90;;;;;;5069409;28;20719;-81
2021/12/21 08:00:15;;;;;;;9.25;6.18;;;-2.60;99.90;;;;;;5036827;28;20040;-79
2021/12/21 08:02:41;;;;;;;13.05;6.93;;;-2.60;99.90;;;;;;5070235;28;20044;-79
2021/12/21 08:05:08;;;;;;;10.32;6.43;;;-2.60;99.90;;;;;;5070471;28;20115;-79
2021/12/21 08:07:43;;;;;;;11.85;7.38;;;-2.60;99.90;;;;;;5070565;28;20036;-79
2021/12/21 08:10:28;;;;;;;12.35;7.03;;;-2.60;99.90;;;;;;5055249;28;20047;-79
2021/12/21 08:12:55;;;;;;;13.05;7.35;;;-2.60;99.90;;;;;;5063969;28;20078;-79
2021/12/21 08:15:23;;;;;;;14.02;7.90;;;-2.60;99.90;;;;;;5070808;28;20120;-78
2021/12/21 08:17:49;;;;;;;14.80;8.07;;;-2.60;99.90;;;;;;5036838;28;20120;-78
2021/12/21 08:20:15;;;;;;;10.55;7.50;;;-2.60;99.90;;;;;;5037711;28;20436;-78
2021/12/21 08:22:40;;;;;;;13.70;8.30;;;-2.20;99.90;;;;;;5070474;28;20052;-78
2021/12/21 08:25:07;;;;;;;17.05;9.27;;;-2.50;99.90;;;;;;5070653;28;20123;-80
2021/12/21 08:27:33;;;;;;;;;;;-2.40;99.90;;;;;;5070788;28;20044;-78
2021/12/21 08:29:58;;;;;;;15.65;10.05;;;-2.20;99.90;;;;;;5053846;28;19977;-78
2021/12/21 08:32:24;;;;;;;16.20;9.30;;;-1.70;99.90;;;;;;5053614;28;20496;-78
2021/12/21 08:34:50;;;;;;;13.45;8.50;;;-0.90;99.90;;;;;;5070759;28;20492;-79
2021/12/21 08:37:16;;;;;;;14.48;7.63;;;0.00;99.90;;;;;;5053710;28;20488;-79
2021/12/21 08:39:42;;;;;;;10.32;7.10;;;0.70;99.90;;;;;;5070834;28;20562;-79
2021/12/21 08:42:12;;;;;;;8.95;6.43;;;1.50;99.90;;;;;;5053942;28;20047;-79
2021/12/21 08:44:40;;;;;;;12.35;6.75;;;2.20;99.90;;;;;;5054421;28;20068;-79
2021/12/21 08:47:06;;;;;;;12.32;6.47;;;3.60;99.90;;;;;;5071033;28;20048;-80
2021/12/21 08:49:32;;;;;;;10.02;6.20;;;2.90;99.90;;;;;;5053801;28;20169;-80
2021/12/21 08:51:58;;;;;;;10.17;5.40;;;3.30;99.90;;;;;;5071063;28;20190;-80
2021/12/21 08:54:24;;;;;;;11.70;6.35;;;3.60;99.90;;;;;;5054487;28;20839;-80
2021/12/21 08:56:51;;;;;;;11.27;6.03;;;3.80;99.90;;;;;;5054220;28;20123;-80
2021/12/21 08:59:17;;;;;;;;;;;4.80;99.90;;;;;;5054774;28;20040;-80
2021/12/21 09:01:44;;;;;;;11.85;5.65;;;3.90;99.90;;;;;;5104627;28;19920;-80
2021/12/21 09:04:10;;;;;;;10.05;6.38;;;4.30;99.90;;;;;;5054291;28;20047;-80
2021/12/21 09:06:36;;;;;;;9.63;5.50;;;4.20;99.90;;;;;;5058578;28;20439;-80
2021/12/21 09:09:03;;;;;;;12.68;6.03;;;3.90;99.90;;;;;;5062594;28;20051;-80
2021/12/21 09:11:28;;;;;;;;;;;3.30;99.90;;;;;;5074916;28;20582;-80
2021/12/21 09:13:54;;;;;;;17.92;7.15;;;2.70;99.90;;;;;;5074274;28;19966;-80
2021/12/21 09:16:20;;;;;;;12.70;6.45;;;2.60;99.90;;;;;;5074662;28;20044;-79
2021/12/21 09:18:46;;;;;;;12.50;6.80;;;2.40;99.90;;;;;;5074482;28;20040;-80
2021/12/21 09:21:13;;;;;;;13.02;6.40;;;2.60;99.90;;;;;;5074059;28;20048;-80
2021/12/21 09:23:40;;;;;;;12.00;6.78;;;3.40;99.90;;;;;;5057328;28;20029;-80
2021/12/21 09:26:06;;;;;;;18.50;6.97;;;3.80;99.90;;;;;;5074344;28;20039;-80
2021/12/21 09:28:31;;;;;;;9.35;6.07;;;4.50;99.90;;;;;;5057499;28;20036;-80
2021/12/21 09:30:58;;;;;;;12.00;6.18;;;5.10;99.90;;;;;;5041240;28;20158;-80
2021/12/21 09:33:24;;;;;;;12.98;6.25;;;5.70;99.90;;;;;;5073904;28;20045;-80
2021/12/21 09:35:52;;;;;;;9.98;6.28;;;5.90;99.90;;;;;;5074115;28;20036;-80
2021/12/21 09:38:18;;;;;;;12.57;6.45;;;5.80;99.90;;;;;;5073983;28;20044;-80
2021/12/21 09:40:43;;;;;;;11.63;6.40;;;5.80;99.90;;;;;;5057325;28;20066;-80
2021/12/21 09:43:11;;;;;;;12.90;6.27;;;5.60;99.90;;;;;;5073291;28;20044;-80
2021/12/21 09:45:38;;;;;;;11.15;6.25;;;5.50;99.90;;;;;;5056567;28;20068;-80
2021/12/21 09:48:06;;;;;;;12.25;6.90;;;5.40;99.90;;;;;;5073469;28;20043;-80
2021/12/21 09:50:36;;;;;;;12.18;6.82;;;5.30;99.90;;;;;;5073209;28;20120;-80
2021/12/21 09:53:03;;;;;;;9.48;6.68;;;5.50;99.90;;;;;;5073014;28;20101;-80
2021/12/21 09:55:29;;;;;;;12.98;6.65;;;6.00;99.90;;;;;;5056697;28;20091;-80
2021/12/21 09:57:55;;;;;;;10.25;6.50;;;6.60;99.90;;;;;;5073484;28;20041;-80
2021/12/21 10:00:28;;;;;;;;;;;7.50;99.90;;;;;;5073917;28;20045;-80
2021/12/21 10:03:02;;;;;;;10.27;5.57;;;7.70;99.90;;;;;;5072567;28;19920;-80
2021/12/21 10:05:29;;;;;;;9.50;5.65;;;8.30;99.90;;;;;;5056349;28;20041;-80
2021/12/21 10:08:08;;;;;;;9.15;5.60;;;8.70;99.90;;;;;;5056493;28;20507;-80
2021/12/21 10:10:49;;;;;;;9.25;5.75;;;9.10;99.90;;;;;;5056989;28;20047;-79
2021/12/21 10:13:21;;;;;;;7.85;5.30;;;9.20;99.90;;;;;;5056365;28;20404;-79
2021/12/21 10:15:49;;;;;;;10.32;5.53;;;9.50;99.90;;;;;;5056024;28;20036;-79
2021/12/21 10:18:29;;;;;;;9.68;6.35;;;9.80;99.90;;;;;;5072859;28;20040;-79
2021/12/21 10:20:58;;;;;;;9.93;5.65;;;10.10;99.90;;;;;;5053192;28;20397;-79
2021/12/21 10:23:33;;;;;;;10.15;5.97;;;9.80;99.90;;;;;;5039922;28;20045;-79
2021/12/21 10:26:26;;;;;;;8.52;5.57;;;9.80;99.90;;;;;;5072696;28;20032;-79
2021/12/21 10:28:57;;;;;;;8.50;5.57;;;10.20;99.90;;;;;;5069724;28;20040;-79
2021/12/21 10:31:29;;;;;;;7.47;5.07;;;10.30;99.90;;;;;;5072467;28;20051;-79
2021/12/21 10:33:57;;;;;;;10.23;5.20;;;10.10;99.90;;;;;;5055786;28;20049;-80
2021/12/21 10:36:26;;;;;;;8.10;5.80;;;10.00;99.90;;;;;;5072276;28;20036;-79
2021/12/21 10:38:55;;;;;;;9.07;5.50;;;10.20;99.90;;;;;;5072358;28;20046;-79
2021/12/21 10:41:31;;;;;;;12.95;5.80;;;10.00;99.90;;;;;;5072631;28;20501;-79
2021/12/21 10:44:12;;;;;;;9.15;5.60;;;10.10;99.90;;;;;;5072611;28;20535;-79
2021/12/21 10:46:44;;;;;;;9.20;5.72;;;10.30;99.90;;;;;;5056356;28;20051;-79
2021/12/21 10:49:13;;;;;;;8.77;5.78;;;10.80;99.90;;;;;;5071803;28;20036;-79
2021/12/21 10:51:51;;;;;;;9.77;5.13;;;11.30;99.90;;;;;;5072220;28;20377;-79
2021/12/21 10:54:35;;;;;;;11.25;5.45;;;11.20;99.90;;;;;;5060028;28;20101;-79
2021/12/21 10:57:12;;;;;;;10.02;5.47;;;11.70;99.90;;;;;;5053810;28;20029;-79
2021/12/21 10:59:40;;;;;;;9.18;5.28;;;11.50;99.90;;;;;;5072035;28;20171;-79
2021/12/21 11:02:14;;;;;;;7.88;5.20;;;11.80;99.90;;;;;;5071528;28;20131;-79
2021/12/21 11:04:45;;;;;;;7.75;4.95;;;11.90;99.90;;;;;;5054970;28;20090;-79
2021/12/21 11:07:27;;;;;;;9.10;5.10;;;12.10;99.90;;;;;;5071877;28;20037;-79
2021/12/21 11:10:10;;;;;;;8.75;4.68;;;12.30;99.90;;;;;;5063415;28;20119;-79
2021/12/21 11:12:53;;;;;;;9.82;5.30;;;12.10;99.90;;;;;;5071364;28;20044;-79
2021/12/21 11:15:28;;;;;;;8.65;4.82;;;12.50;99.90;;;;;;5071561;28;20101;-78
2021/12/21 11:17:58;;;;;;;7.50;4.95;;;12.90;99.90;;;;;;5040857;28;20043;-79
2021/12/21 11:20:25;;;;;;;7.13;4.72;;;13.00;99.90;;;;;;5071068;28;20040;-78
2021/12/21 11:22:52;;;;;;;7.88;5.32;;;13.10;99.90;;;;;;5054320;28;20045;-78
2021/12/21 11:25:19;;;;;;;8.27;5.00;;;13.30;99.90;;;;;;5071136;28;20489;-78
2021/12/21 11:27:46;;;;;;;8.23;4.60;;;13.50;99.90;;;;;;5070310;28;20134;-78
2021/12/21 11:30:15;;;;;;;10.15;4.82;;;13.90;99.90;;;;;;5069883;28;20047;-78
2021/12/21 11:32:44;;;;;;;8.73;5.07;;;13.90;99.50;;;;;;5069690;28;20044;-78
2021/12/21 11:37:45;;;;;;;9.45;5.03;;;13.70;98.50;;;;;;5070929;28;20505;-78
2021/12/21 11:40:16;;;;;;;6.93;5.03;;;13.80;98.30;;;;;;5054059;28;20055;-78
2021/12/21 11:42:50;;;;;;;9.57;5.13;;;14.00;97.60;;;;;;5070462;28;20036;-78
2021/12/21 11:45:33;;;;;;;7.50;4.93;;;13.70;98.00;;;;;;5070595;28;20493;-77
2021/12/21 11:48:11;;;;;;;8.77;5.13;;;14.00;98.00;;;;;;5067909;28;20373;-78
2021/12/21 11:50:43;;;;;;;8.98;4.50;;;13.80;96.90;;;;;;5068739;28;20043;-77
2021/12/21 11:53:12;;;;;;;7.75;4.65;;;13.90;98.20;;;;;;5070377;28;20048;-78
2021/12/21 11:55:44;;;;;;;7.80;4.50;;;14.30;97.10;;;;;;5070473;28;20451;-78
2021/12/21 11:58:18;;;;;;;10.05;5.47;;;14.50;95.40;;;;;;5070650;28;20040;-77
2021/12/21 12:00:54;;;;;;;6.85;4.65;;;14.60;95.60;;;;;;5067657;28;20155;-77
2021/12/21 12:03:24;;;;;;;6.55;4.18;;;14.90;95.60;;;;;;5070196;28;20057;-77
2021/12/21 12:06:02;;;;;;;7.55;4.82;;;14.90;93.80;;;;;;5070047;28;20400;-77
2021/12/21 12:08:44;;;;;;;8.30;4.20;;;14.70;95.10;;;;;;5069476;28;20040;-78
2021/12/21 12:11:25;;;;;;;7.88;4.57;;;14.60;95.00;;;;;;5069987;28;20041;-77
2021/12/21 12:14:13;;;;;;;9.10;4.55;;;15.00;93.80;;;;;;5063616;28;20051;-77
2021/12/21 12:16:40;;;;;;;;;;;15.40;92.80;;;;;;5062098;28;20106;-77
2021/12/21 12:19:12;;;;;;;9.02;4.35;;;15.50;91.40;;;;;;5103702;28;19924;-77
2021/12/21 12:21:38;;;;;;;9.80;4.72;;;15.50;90.60;;;;;;5069702;28;20111;-77
2021/12/21 12:24:05;;;;;;;7.25;4.30;;;15.30;90.40;;;;;;5070178;28;20116;-77
2021/12/21 12:26:36;;;;;;;6.63;4.30;;;15.00;90.80;;;;;;5052998;28;20072;-77
2021/12/21 12:29:19;;;;;;;6.32;4.43;;;15.20;91.70;;;;;;5070202;28;20040;-78
2021/12/21 12:31:57;;;;;;;7.82;4.38;;;14.90;90.40;;;;;;5069592;28;20106;-78
2021/12/21 12:34:25;;;;;;;6.10;4.05;;;15.00;91.70;;;;;;5053184;28;20048;-77
2021/12/21 12:36:51;;;;;;;6.47;4.25;;;15.30;90.40;;;;;;5069835;28;20112;-77
2021/12/21 12:39:34;;;;;;;9.00;4.22;;;15.00;89.10;;;;;;5036436;28;20044;-78
2021/12/21 12:42:12;;;;;;;8.15;4.95;;;14.60;89.90;;;;;;5053285;28;20052;-77
2021/12/21 12:44:41;;;;;;;5.80;4.07;;;14.30;91.70;;;;;;5064974;28;20070;-77
2021/12/21 12:47:10;;;;;;;8.52;4.07;;;12.90;93.80;;;;;;5073522;28;20113;-77
2021/12/21 12:49:47;;;;;;;7.38;4.10;;;12.10;95.40;;;;;;5056422;28;20072;-77
2021/12/21 12:52:28;;;;;;;7.25;3.78;;;11.60;96.20;;;;;;5056769;28;20044;-78
2021/12/21 12:54:55;;;;;;;8.70;4.72;;;11.20;96.70;;;;;;5056754;28;20044;-77
2021/12/21 12:57:33;;;;;;;8.45;4.32;;;10.50;99.90;;;;;;5073433;28;20044;-77
2021/12/21 13:00:22;;;;;;;9.52;4.55;;;10.00;99.90;;;;;;5073583;28;20033;-77
2021/12/21 13:03:07;;;;;;;8.00;4.80;;;9.50;99.90;;;;;;5056103;28;20108;-77
2021/12/21 13:05:39;;;;;;;7.53;4.70;;;9.30;99.90;;;;;;5056416;28;20070;-77
2021/12/21 13:08:16;;;;;;;8.77;5.07;;;9.40;99.90;;;;;;5073263;28;20055;-77
2021/12/21 13:10:45;;;;;;;8.52;5.00;;;9.40;99.90;;;;;;5072878;28;20036;-77
2021/12/21 13:13:11;;;;;;;8.18;4.82;;;9.60;99.90;;;;;;5073016;28;20052;-77
2021/12/21 13:15:45;;;;;;;10.18;5.22;;;9.40;99.90;;;;;;5072875;28;20033;-77
2021/12/21 13:18:13;;;;;;;9.00;4.93;;;9.20;99.90;;;;;;5073382;28;20032;-77
2021/12/21 13:20:41;;;;;;;9.77;4.70;;;8.90;99.90;;;;;;5073222;28;20083;-77
2021/12/21 13:23:19;;;;;;;10.95;5.07;;;8.90;99.90;;;;;;5073126;28;20522;-77
2021/12/21 13:25:54;;;;;;;10.35;4.90;;;8.90;99.90;;;;;;5072537;28;20106;-77
2021/12/21 13:28:20;;;;;;;8.35;4.82;;;8.60;99.90;;;;;;5056170;28;20112;-78
2021/12/21 13:30:48;;;;;;;10.63;5.25;;;8.40;99.90;;;;;;5056512;28;20520;-78
2021/12/21 13:33:23;;;;;;;8.90;5.13;;;8.60;99.90;;;;;;5072876;28;20107;-78
2021/12/21 13:35:56;;;;;;;9.90;5.10;;;8.50;99.90;;;;;;5056381;28;20079;-78
2021/12/21 13:38:24;;;;;;;8.45;5.13;;;8.30;99.90;;;;;;5056175;28;20041;-78
2021/12/21 13:41:09;;;;;;;8.80;5.00;;;8.00;99.90;;;;;;5072772;28;20055;-78
2021/12/21 13:43:38;;;;;;;8.88;4.57;;;8.00;99.90;;;;;;5072345;28;20218;-78
2021/12/21 13:46:07;;;;;;;7.38;4.57;;;7.70;99.90;;;;;;5073090;28;20040;-77
2021/12/21 13:48:35;;;;;;;11.57;5.07;;;7.70;99.90;;;;;;5074863;28;20079;-81
2021/12/21 13:51:15;;;;;;;9.07;4.38;;;7.50;99.90;;;;;;5044591;28;20044;-81
2021/12/21 13:53:43;;;;;;;9.13;4.43;;;7.70;99.90;;;;;;5078186;28;20499;-81
2021/12/21 13:56:21;;;;;;;9.20;4.60;;;8.00;99.90;;;;;;5077880;28;20051;-81
2021/12/21 13:58:48;;;;;;;8.88;4.32;;;8.00;99.90;;;;;;5079781;28;20070;-81
2021/12/21 14:01:32;;;;;;;7.22;4.75;;;8.10;99.90;;;;;;5079677;28;20036;-81
2021/12/21 14:04:05;;;;;;;12.07;4.45;;;8.10;99.90;;;;;;5063732;28;20052;-81
2021/12/21 14:06:33;;;;;;;7.43;4.28;;;7.90;99.90;;;;;;5081524;28;20036;-81
2021/12/21 14:09:01;;;;;;;7.20;4.35;;;7.70;99.90;;;;;;5081177;28;20040;-81
2021/12/21 14:11:33;;;;;;;8.73;4.28;;;7.80;99.90;;;;;;5084278;28;20068;-81